Slotergracht — PDBP — position and weather

sailwx.info

Track history (hours):
 
Tides and Currents Weather Stations Pressure Air Temp Water Temp Dewpoint Dewpoint Depression Visibility Wind Speed Wind Dir Waves Ship Positions

Slotergracht

Last reported at 2016-Apr-28 12:28 UTC. Time now 2016-May-05 14:15 UTC.
Position N 39°10' W 072°34'.

Length 168 m; beam 25 m.

Type: Cargo ship. MMSI: 246456000.

Date/timePositionNaut miles runAvg speedWind from/ knotsBaromVisibWave heightAir tempDewpointWater temp
2016-Apr-28 12:28N 39°10' W 072°34'6013.6
2016-Apr-28 08:04N 38°55' W 073°48'713.9
2016-Apr-28 07:33N 38°53' W 073°57'1413.9
2016-Apr-28 06:33N 38°49' W 074°14'1514.6
2016-Apr-28 05:32N 38°46' W 074°33'1110.9
2016-Apr-28 04:33N 38°46' W 074°46'18 8.1
2016-Apr-28 02:22N 38°55' W 075°06'  
2016-Apr-25 20:16N 39°19' W 072°45'22010.1
2016-Apr-24 22:33N 42°21' W 070°01'10 9.9
2016-Apr-24 21:33N 42°31' W 070°00'1717.5
2016-Apr-24 20:33N 42°48' W 069°59'  
2016-Apr-21 18:32N 49°08' W 058°19'5 5.6
2016-Apr-21 17:33N 49°05' W 058°13'8 7.8
2016-Apr-21 16:33N 48°59' W 058°04'5 5.2
2016-Apr-21 15:33N 48°57' W 057°57'0 0.0
2016-Apr-21 14:32N 48°57' W 057°57'0 0.0
2016-Apr-21 13:29N 48°57' W 057°57'0 0.0
2016-Apr-21 12:32N 48°57' W 057°57'0 0.0
2016-Apr-21 11:31N 48°57' W 057°57'0 0.0
2016-Apr-21 10:31N 48°57' W 057°57'0 0.0
2016-Apr-21 09:31N 48°57' W 057°57'0 0.0
2016-Apr-21 08:31N 48°57' W 057°57'0 0.0
2016-Apr-21 07:31N 48°57' W 057°57'0 0.0
2016-Apr-21 06:31N 48°57' W 057°57'0 0.0
2016-Apr-21 05:31N 48°57' W 057°57'0 0.0
2016-Apr-21 04:31N 48°57' W 057°57'0 0.0
2016-Apr-21 03:31N 48°57' W 057°57'0 0.0
2016-Apr-21 02:31N 48°57' W 057°57'0 0.0
2016-Apr-21 01:31N 48°57' W 057°57'0 0.0
2016-Apr-21 00:31N 48°57' W 057°57'0 0.0
2016-Apr-20 23:31N 48°57' W 057°57'0 0.0
2016-Apr-20 22:31N 48°57' W 057°57'0 0.0
2016-Apr-20 21:31N 48°57' W 057°57'0 0.0
2016-Apr-20 20:31N 48°57' W 057°57'0 0.0
2016-Apr-20 19:31N 48°57' W 057°57'0 0.0
2016-Apr-20 18:31N 48°57' W 057°57'0 0.0
2016-Apr-20 17:31N 48°57' W 057°57'0 0.0
2016-Apr-20 16:31N 48°57' W 057°57'0 0.0
2016-Apr-20 15:31N 48°57' W 057°57'0 0.0
2016-Apr-20 14:31N 48°57' W 057°57'0 0.0
2016-Apr-20 13:31N 48°57' W 057°57'0 0.0
2016-Apr-20 12:31N 48°57' W 057°57'0 0.0
2016-Apr-20 11:31N 48°57' W 057°57'0 0.0
2016-Apr-20 10:31N 48°57' W 057°57'0 0.0
2016-Apr-20 09:31N 48°57' W 057°57'0 0.0
2016-Apr-20 08:31N 48°57' W 057°57'0 0.0
2016-Apr-20 07:31N 48°57' W 057°57'0 0.0
2016-Apr-20 06:31N 48°57' W 057°57'0 0.0
2016-Apr-20 05:31N 48°57' W 057°57'0 0.0
2016-Apr-20 04:31N 48°57' W 057°57'0 0.0
2016-Apr-20 03:31N 48°57' W 057°57'0 0.0
2016-Apr-20 02:31N 48°57' W 057°57'0 0.0
2016-Apr-20 01:31N 48°57' W 057°57'0 0.0
2016-Apr-20 00:34N 48°57' W 057°57'0 0.0
2016-Apr-19 23:33N 48°57' W 057°57'0 0.0
2016-Apr-19 22:33N 48°57' W 057°57'0 0.0
2016-Apr-19 21:33N 48°57' W 057°57'0 0.0
2016-Apr-19 20:33N 48°57' W 057°57'0 0.0
2016-Apr-19 19:33N 48°57' W 057°57'0 0.0
2016-Apr-19 18:33N 48°57' W 057°57'0 0.0
2016-Apr-19 17:33N 48°57' W 057°57'0 0.0
2016-Apr-19 16:33N 48°57' W 057°57'0 0.0
2016-Apr-19 15:33N 48°57' W 057°57'0 0.0
2016-Apr-19 14:33N 48°57' W 057°57'0 0.0
2016-Apr-19 13:33N 48°57' W 057°57'0 0.0
2016-Apr-19 12:33N 48°57' W 057°57'0 0.0
2016-Apr-19 11:30N 48°57' W 057°57'0 0.0
2016-Apr-19 10:33N 48°57' W 057°57'0 0.0
2016-Apr-19 09:33N 48°57' W 057°57'0 0.0
2016-Apr-19 08:33N 48°57' W 057°57'0 0.0
2016-Apr-19 07:33N 48°57' W 057°57'0 0.0
2016-Apr-19 06:33N 48°57' W 057°57'0 0.0
2016-Apr-19 05:33N 48°57' W 057°57'0 0.0
2016-Apr-19 04:33N 48°57' W 057°57'0 0.0
2016-Apr-19 03:33N 48°57' W 057°57'0 0.0
2016-Apr-19 02:33N 48°57' W 057°57'0 0.0
2016-Apr-19 01:33N 48°57' W 057°57'0 0.0
2016-Apr-19 00:33N 48°57' W 057°57'0 0.0
2016-Apr-18 23:33N 48°57' W 057°57'0 0.0
2016-Apr-18 22:33N 48°57' W 057°57'0 0.0
2016-Apr-18 21:33N 48°57' W 057°57'0 0.0
2016-Apr-18 20:33N 48°57' W 057°57'0 0.0
2016-Apr-18 19:33N 48°57' W 057°57'0 0.0
2016-Apr-18 18:33N 48°57' W 057°57'0 0.0
2016-Apr-18 17:33N 48°57' W 057°57'0 0.0
2016-Apr-18 16:33N 48°57' W 057°57'0 0.0
2016-Apr-18 15:33N 48°57' W 057°57'0 0.0
2016-Apr-18 14:33N 48°57' W 057°57'0 0.0
2016-Apr-18 13:33N 48°57' W 057°57'0 0.0
2016-Apr-18 12:33N 48°57' W 057°57'  
Track history (hours):
 
Tides and Currents Weather Stations Pressure Air Temp Water Temp Dewpoint Dewpoint Depression Visibility Wind Speed Wind Dir Waves Ship Positions

Slotergracht

Last reported at 2016-Apr-28 12:28 UTC. Time now 2016-May-05 14:15 UTC.
Position N 39°10' W 072°34'.

Length 168 m; beam 25 m.

Type: Cargo ship. MMSI: 246456000.

Date/timePositionNaut miles runAvg speedWind from/ knotsBaromVisibWave heightAir tempDewpointWater temp
2016-Apr-28 12:28N 39°10' W 072°34'6013.6
2016-Apr-28 08:04N 38°55' W 073°48'713.9
2016-Apr-28 07:33N 38°53' W 073°57'1413.9
2016-Apr-28 06:33N 38°49' W 074°14'1514.6
2016-Apr-28 05:32N 38°46' W 074°33'1110.9
2016-Apr-28 04:33N 38°46' W 074°46'18 8.1
2016-Apr-28 02:22N 38°55' W 075°06'  
2016-Apr-25 20:16N 39°19' W 072°45'22010.1
2016-Apr-24 22:33N 42°21' W 070°01'10 9.9
2016-Apr-24 21:33N 42°31' W 070°00'1717.5
2016-Apr-24 20:33N 42°48' W 069°59'  
2016-Apr-21 18:32N 49°08' W 058°19'5 5.6
2016-Apr-21 17:33N 49°05' W 058°13'8 7.8
2016-Apr-21 16:33N 48°59' W 058°04'5 5.2
2016-Apr-21 15:33N 48°57' W 057°57'0 0.0
2016-Apr-21 14:32N 48°57' W 057°57'0 0.0
2016-Apr-21 13:29N 48°57' W 057°57'0 0.0
2016-Apr-21 12:32N 48°57' W 057°57'0 0.0
2016-Apr-21 11:31N 48°57' W 057°57'0 0.0
2016-Apr-21 10:31N 48°57' W 057°57'0 0.0
2016-Apr-21 09:31N 48°57' W 057°57'0 0.0
2016-Apr-21 08:31N 48°57' W 057°57'0 0.0
2016-Apr-21 07:31N 48°57' W 057°57'0 0.0
2016-Apr-21 06:31N 48°57' W 057°57'0 0.0
2016-Apr-21 05:31N 48°57' W 057°57'0 0.0
2016-Apr-21 04:31N 48°57' W 057°57'0 0.0
2016-Apr-21 03:31N 48°57' W 057°57'0 0.0
2016-Apr-21 02:31N 48°57' W 057°57'0 0.0
2016-Apr-21 01:31N 48°57' W 057°57'0 0.0
2016-Apr-21 00:31N 48°57' W 057°57'0 0.0
2016-Apr-20 23:31N 48°57' W 057°57'0 0.0
2016-Apr-20 22:31N 48°57' W 057°57'0 0.0
2016-Apr-20 21:31N 48°57' W 057°57'0 0.0
2016-Apr-20 20:31N 48°57' W 057°57'0 0.0
2016-Apr-20 19:31N 48°57' W 057°57'0 0.0
2016-Apr-20 18:31N 48°57' W 057°57'0 0.0
2016-Apr-20 17:31N 48°57' W 057°57'0 0.0
2016-Apr-20 16:31N 48°57' W 057°57'0 0.0
2016-Apr-20 15:31N 48°57' W 057°57'0 0.0
2016-Apr-20 14:31N 48°57' W 057°57'0 0.0
2016-Apr-20 13:31N 48°57' W 057°57'0 0.0
2016-Apr-20 12:31N 48°57' W 057°57'0 0.0
2016-Apr-20 11:31N 48°57' W 057°57'0 0.0
2016-Apr-20 10:31N 48°57' W 057°57'0 0.0
2016-Apr-20 09:31N 48°57' W 057°57'0 0.0
2016-Apr-20 08:31N 48°57' W 057°57'0 0.0
2016-Apr-20 07:31N 48°57' W 057°57'0 0.0
2016-Apr-20 06:31N 48°57' W 057°57'0 0.0
2016-Apr-20 05:31N 48°57' W 057°57'0 0.0
2016-Apr-20 04:31N 48°57' W 057°57'0 0.0
2016-Apr-20 03:31N 48°57' W 057°57'0 0.0
2016-Apr-20 02:31N 48°57' W 057°57'0 0.0
2016-Apr-20 01:31N 48°57' W 057°57'0 0.0
2016-Apr-20 00:34N 48°57' W 057°57'0 0.0
2016-Apr-19 23:33N 48°57' W 057°57'0 0.0
2016-Apr-19 22:33N 48°57' W 057°57'0 0.0
2016-Apr-19 21:33N 48°57' W 057°57'0 0.0
2016-Apr-19 20:33N 48°57' W 057°57'0 0.0
2016-Apr-19 19:33N 48°57' W 057°57'0 0.0
2016-Apr-19 18:33N 48°57' W 057°57'0 0.0
2016-Apr-19 17:33N 48°57' W 057°57'0 0.0
2016-Apr-19 16:33N 48°57' W 057°57'0 0.0
2016-Apr-19 15:33N 48°57' W 057°57'0 0.0
2016-Apr-19 14:33N 48°57' W 057°57'0 0.0
2016-Apr-19 13:33N 48°57' W 057°57'0 0.0
2016-Apr-19 12:33N 48°57' W 057°57'0 0.0
2016-Apr-19 11:30N 48°57' W 057°57'0 0.0
2016-Apr-19 10:33N 48°57' W 057°57'0 0.0
2016-Apr-19 09:33N 48°57' W 057°57'0 0.0
2016-Apr-19 08:33N 48°57' W 057°57'0 0.0
2016-Apr-19 07:33N 48°57' W 057°57'0 0.0
2016-Apr-19 06:33N 48°57' W 057°57'0 0.0
2016-Apr-19 05:33N 48°57' W 057°57'0 0.0
2016-Apr-19 04:33N 48°57' W 057°57'0 0.0
2016-Apr-19 03:33N 48°57' W 057°57'0 0.0
2016-Apr-19 02:33N 48°57' W 057°57'0 0.0
2016-Apr-19 01:33N 48°57' W 057°57'0 0.0
2016-Apr-19 00:33N 48°57' W 057°57'0 0.0
2016-Apr-18 23:33N 48°57' W 057°57'0 0.0
2016-Apr-18 22:33N 48°57' W 057°57'0 0.0
2016-Apr-18 21:33N 48°57' W 057°57'0 0.0
2016-Apr-18 20:33N 48°57' W 057°57'0 0.0
2016-Apr-18 19:33N 48°57' W 057°57'0 0.0
2016-Apr-18 18:33N 48°57' W 057°57'0 0.0
2016-Apr-18 17:33N 48°57' W 057°57'0 0.0
2016-Apr-18 16:33N 48°57' W 057°57'0 0.0
2016-Apr-18 15:33N 48°57' W 057°57'0 0.0
2016-Apr-18 14:33N 48°57' W 057°57'0 0.0
2016-Apr-18 13:33N 48°57' W 057°57'0 0.0
2016-Apr-18 12:33N 48°57' W 057°57'  

Dump ship's entire track history